Pike Station, Illinois
Current Conditions -  °F | °C
As of 4:35 PM on Monday 24 Nov 2014 (Local Time) from KPPQ Reporting Station
Overcast Overcast  
Wind Chill: 28°   Ceiling: 3200
Heat Index: 36°   Visibility: 10mi
Dew Point: 27°   Wind: 12mph
Humidity: 71%   Direction: 260°W
Pressure: 29.82"   Gusts: 17mph
Location:  39.5365°N, 91.0118°W
Report Text: KPPQ 242235Z AUTO 26010G15KT 10SM OVC032 02/M03 A2982 RMK AO2 T00221026
Loading
Personal Weather Stations






























Interactive Weather Map New forecast layout! Learn more

10-Day Weather Forecast

Advertisements
Track Severe Weather on mobile